sensor_id;sensor_type;location;lat;lon;timestamp;P1;durP1;ratioP1;P2;durP2;ratioP2
36243;SDS011;22284;49.956;19.816;2022-07-29T00:00:56;7.90;;;4.78;;
36243;SDS011;22284;49.956;19.816;2022-07-29T00:03:57;7.67;;;4.67;;
36243;SDS011;22284;49.956;19.816;2022-07-29T00:06:58;8.80;;;4.62;;
36243;SDS011;22284;49.956;19.816;2022-07-29T00:09:59;8.40;;;5.03;;
36243;SDS011;22284;49.956;19.816;2022-07-29T00:13:00;10.13;;;5.35;;
36243;SDS011;22284;49.956;19.816;2022-07-29T00:16:01;8.28;;;4.65;;
36243;SDS011;22284;49.956;19.816;2022-07-29T00:19:03;9.35;;;5.03;;
36243;SDS011;22284;49.956;19.816;2022-07-29T00:22:05;9.90;;;4.67;;
36243;SDS011;22284;49.956;19.816;2022-07-29T00:25:06;10.80;;;5.00;;
36243;SDS011;22284;49.956;19.816;2022-07-29T00:28:08;10.80;;;5.05;;
36243;SDS011;22284;49.956;19.816;2022-07-29T00:31:09;7.87;;;5.28;;
36243;SDS011;22284;49.956;19.816;2022-07-29T00:34:11;10.70;;;5.70;;
36243;SDS011;22284;49.956;19.816;2022-07-29T00:37:30;10.48;;;5.67;;
36243;SDS011;22284;49.956;19.816;2022-07-29T00:40:31;9.23;;;5.03;;
36243;SDS011;22284;49.956;19.816;2022-07-29T00:43:32;10.50;;;6.37;;
36243;SDS011;22284;49.956;19.816;2022-07-29T00:46:33;12.07;;;6.25;;
36243;SDS011;22284;49.956;19.816;2022-07-29T00:49:34;10.93;;;5.78;;
36243;SDS011;22284;49.956;19.816;2022-07-29T00:52:37;9.83;;;5.87;;
36243;SDS011;22284;49.956;19.816;2022-07-29T00:55:39;7.58;;;5.67;;
36243;SDS011;22284;49.956;19.816;2022-07-29T00:58:41;10.48;;;5.20;;
36243;SDS011;22284;49.956;19.816;2022-07-29T01:01:42;10.58;;;6.00;;
36243;SDS011;22284;49.956;19.816;2022-07-29T01:04:43;10.85;;;5.33;;
36243;SDS011;22284;49.956;19.816;2022-07-29T01:07:44;10.88;;;5.67;;
36243;SDS011;22284;49.956;19.816;2022-07-29T01:10:46;11.00;;;5.78;;
36243;SDS011;22284;49.956;19.816;2022-07-29T01:13:48;11.48;;;5.33;;
36243;SDS011;22284;49.956;19.816;2022-07-29T01:16:58;10.88;;;5.92;;
36243;SDS011;22284;49.956;19.816;2022-07-29T01:27:04;8.20;;;5.42;;
36243;SDS011;22284;49.956;19.816;2022-07-29T01:30:25;8.58;;;4.90;;
36243;SDS011;22284;49.956;19.816;2022-07-29T01:33:30;10.88;;;5.50;;
36243;SDS011;22284;49.956;19.816;2022-07-29T01:36:51;8.18;;;5.15;;
36243;SDS011;22284;49.956;19.816;2022-07-29T01:40:24;12.47;;;5.45;;
36243;SDS011;22284;49.956;19.816;2022-07-29T01:43:42;11.00;;;5.30;;
36243;SDS011;22284;49.956;19.816;2022-07-29T01:46:53;9.45;;;5.30;;
36243;SDS011;22284;49.956;19.816;2022-07-29T01:49:59;9.08;;;5.45;;
36243;SDS011;22284;49.956;19.816;2022-07-29T01:53:02;11.03;;;5.47;;
36243;SDS011;22284;49.956;19.816;2022-07-29T01:56:07;13.72;;;5.45;;
36243;SDS011;22284;49.956;19.816;2022-07-29T01:59:10;11.12;;;5.00;;
36243;SDS011;22284;49.956;19.816;2022-07-29T02:02:13;14.13;;;5.60;;
36243;SDS011;22284;49.956;19.816;2022-07-29T02:05:17;10.68;;;5.30;;
36243;SDS011;22284;49.956;19.816;2022-07-29T02:08:20;8.05;;;5.08;;
36243;SDS011;22284;49.956;19.816;2022-07-29T02:11:23;10.45;;;5.58;;
36243;SDS011;22284;49.956;19.816;2022-07-29T02:14:24;9.83;;;5.30;;
36243;SDS011;22284;49.956;19.816;2022-07-29T02:17:31;11.55;;;5.47;;
36243;SDS011;22284;49.956;19.816;2022-07-29T02:20:35;10.70;;;5.42;;
36243;SDS011;22284;49.956;19.816;2022-07-29T02:23:38;12.10;;;4.90;;
36243;SDS011;22284;49.956;19.816;2022-07-29T02:26:40;10.72;;;5.00;;
36243;SDS011;22284;49.956;19.816;2022-07-29T02:29:43;9.53;;;5.22;;
36243;SDS011;22284;49.956;19.816;2022-07-29T02:32:47;9.05;;;4.83;;
36243;SDS011;22284;49.956;19.816;2022-07-29T02:35:50;10.30;;;4.87;;
36243;SDS011;22284;49.956;19.816;2022-07-29T02:38:52;8.43;;;5.05;;
36243;SDS011;22284;49.956;19.816;2022-07-29T02:42:01;9.58;;;5.42;;
36243;SDS011;22284;49.956;19.816;2022-07-29T02:45:08;11.35;;;5.20;;
36243;SDS011;22284;49.956;19.816;2022-07-29T02:48:14;8.00;;;5.10;;
36243;SDS011;22284;49.956;19.816;2022-07-29T02:51:19;15.00;;;5.50;;
36243;SDS011;22284;49.956;19.816;2022-07-29T02:54:44;9.48;;;4.87;;
36243;SDS011;22284;49.956;19.816;2022-07-29T02:57:59;10.48;;;5.12;;
36243;SDS011;22284;49.956;19.816;2022-07-29T03:01:16;13.30;;;5.50;;
36243;SDS011;22284;49.956;19.816;2022-07-29T03:04:21;12.80;;;5.17;;
36243;SDS011;22284;49.956;19.816;2022-07-29T03:07:24;7.87;;;5.20;;
36243;SDS011;22284;49.956;19.816;2022-07-29T03:10:26;9.10;;;5.50;;
36243;SDS011;22284;49.956;19.816;2022-07-29T03:13:27;7.80;;;5.05;;
36243;SDS011;22284;49.956;19.816;2022-07-29T03:16:30;8.48;;;4.97;;
36243;SDS011;22284;49.956;19.816;2022-07-29T03:19:32;10.05;;;4.87;;
36243;SDS011;22284;49.956;19.816;2022-07-29T03:22:38;7.53;;;5.12;;
36243;SDS011;22284;49.956;19.816;2022-07-29T03:25:41;10.25;;;4.83;;
36243;SDS011;22284;49.956;19.816;2022-07-29T03:28:43;9.03;;;4.95;;
36243;SDS011;22284;49.956;19.816;2022-07-29T03:31:44;8.50;;;4.75;;
36243;SDS011;22284;49.956;19.816;2022-07-29T03:34:46;10.82;;;5.10;;
36243;SDS011;22284;49.956;19.816;2022-07-29T03:37:47;10.48;;;4.92;;
36243;SDS011;22284;49.956;19.816;2022-07-29T03:40:49;11.28;;;4.92;;
36243;SDS011;22284;49.956;19.816;2022-07-29T03:43:56;8.85;;;4.55;;
36243;SDS011;22284;49.956;19.816;2022-07-29T03:47:00;8.00;;;4.53;;
36243;SDS011;22284;49.956;19.816;2022-07-29T03:50:05;16.95;;;4.85;;
36243;SDS011;22284;49.956;19.816;2022-07-29T03:53:12;8.98;;;4.60;;
36243;SDS011;22284;49.956;19.816;2022-07-29T03:56:15;8.08;;;4.85;;
36243;SDS011;22284;49.956;19.816;2022-07-29T03:59:17;9.90;;;4.85;;
36243;SDS011;22284;49.956;19.816;2022-07-29T04:02:20;11.48;;;5.10;;
36243;SDS011;22284;49.956;19.816;2022-07-29T04:05:21;9.03;;;4.62;;
36243;SDS011;22284;49.956;19.816;2022-07-29T04:08:22;9.73;;;5.00;;
36243;SDS011;22284;49.956;19.816;2022-07-29T04:11:23;9.60;;;4.60;;
36243;SDS011;22284;49.956;19.816;2022-07-29T04:14:24;11.63;;;4.70;;
36243;SDS011;22284;49.956;19.816;2022-07-29T04:17:26;10.17;;;4.60;;
36243;SDS011;22284;49.956;19.816;2022-07-29T04:20:27;11.22;;;4.40;;
36243;SDS011;22284;49.956;19.816;2022-07-29T04:23:29;8.08;;;4.60;;
36243;SDS011;22284;49.956;19.816;2022-07-29T04:26:32;10.58;;;4.62;;
36243;SDS011;22284;49.956;19.816;2022-07-29T04:29:34;7.43;;;4.50;;
36243;SDS011;22284;49.956;19.816;2022-07-29T04:32:35;10.30;;;4.22;;
36243;SDS011;22284;49.956;19.816;2022-07-29T04:35:36;11.63;;;4.80;;
36243;SDS011;22284;49.956;19.816;2022-07-29T04:38:38;9.78;;;4.50;;
36243;SDS011;22284;49.956;19.816;2022-07-29T04:41:39;7.42;;;4.30;;
36243;SDS011;22284;49.956;19.816;2022-07-29T04:44:40;6.95;;;4.03;;
36243;SDS011;22284;49.956;19.816;2022-07-29T04:47:41;6.25;;;4.03;;
36243;SDS011;22284;49.956;19.816;2022-07-29T04:50:42;7.58;;;3.90;;
36243;SDS011;22284;49.956;19.816;2022-07-29T04:53:44;9.33;;;4.37;;
36243;SDS011;22284;49.956;19.816;2022-07-29T04:56:45;11.88;;;4.15;;
36243;SDS011;22284;49.956;19.816;2022-07-29T04:59:46;7.92;;;3.92;;
36243;SDS011;22284;49.956;19.816;2022-07-29T05:02:49;8.20;;;4.17;;
36243;SDS011;22284;49.956;19.816;2022-07-29T05:05:50;7.90;;;4.20;;
36243;SDS011;22284;49.956;19.816;2022-07-29T05:08:51;10.28;;;3.83;;
36243;SDS011;22284;49.956;19.816;2022-07-29T05:11:52;10.38;;;4.42;;
36243;SDS011;22284;49.956;19.816;2022-07-29T05:14:53;10.65;;;4.50;;
36243;SDS011;22284;49.956;19.816;2022-07-29T05:17:54;5.58;;;3.65;;
36243;SDS011;22284;49.956;19.816;2022-07-29T05:20:55;7.35;;;3.90;;
36243;SDS011;22284;49.956;19.816;2022-07-29T05:23:56;8.98;;;3.58;;
36243;SDS011;22284;49.956;19.816;2022-07-29T05:26:57;9.15;;;3.90;;
36243;SDS011;22284;49.956;19.816;2022-07-29T05:29:58;7.45;;;4.12;;
36243;SDS011;22284;49.956;19.816;2022-07-29T05:32:59;7.37;;;4.17;;
36243;SDS011;22284;49.956;19.816;2022-07-29T05:36:00;10.53;;;4.00;;
36243;SDS011;22284;49.956;19.816;2022-07-29T05:39:01;8.95;;;4.12;;
36243;SDS011;22284;49.956;19.816;2022-07-29T05:42:02;6.92;;;3.92;;
36243;SDS011;22284;49.956;19.816;2022-07-29T05:45:03;10.40;;;4.03;;
36243;SDS011;22284;49.956;19.816;2022-07-29T05:48:06;7.83;;;4.00;;
36243;SDS011;22284;49.956;19.816;2022-07-29T05:51:06;6.15;;;3.98;;
36243;SDS011;22284;49.956;19.816;2022-07-29T05:54:07;5.42;;;3.92;;
36243;SDS011;22284;49.956;19.816;2022-07-29T05:57:14;8.88;;;3.90;;
36243;SDS011;22284;49.956;19.816;2022-07-29T06:00:21;10.48;;;3.80;;
36243;SDS011;22284;49.956;19.816;2022-07-29T06:03:22;8.60;;;4.10;;
36243;SDS011;22284;49.956;19.816;2022-07-29T06:06:23;8.43;;;3.83;;
36243;SDS011;22284;49.956;19.816;2022-07-29T06:09:24;6.97;;;3.70;;
36243;SDS011;22284;49.956;19.816;2022-07-29T06:12:26;8.08;;;3.98;;
36243;SDS011;22284;49.956;19.816;2022-07-29T06:15:27;6.37;;;3.70;;
36243;SDS011;22284;49.956;19.816;2022-07-29T06:18:28;7.30;;;4.17;;
36243;SDS011;22284;49.956;19.816;2022-07-29T06:21:29;13.20;;;4.05;;
36243;SDS011;22284;49.956;19.816;2022-07-29T06:24:30;10.98;;;4.12;;
36243;SDS011;22284;49.956;19.816;2022-07-29T06:27:31;7.97;;;3.70;;
36243;SDS011;22284;49.956;19.816;2022-07-29T06:30:32;6.17;;;3.40;;
36243;SDS011;22284;49.956;19.816;2022-07-29T06:33:33;8.08;;;4.10;;
36243;SDS011;22284;49.956;19.816;2022-07-29T06:36:38;8.78;;;3.85;;
36243;SDS011;22284;49.956;19.816;2022-07-29T06:39:37;8.38;;;3.87;;
36243;SDS011;22284;49.956;19.816;2022-07-29T06:42:42;10.43;;;4.22;;
36243;SDS011;22284;49.956;19.816;2022-07-29T06:45:44;9.00;;;4.08;;
36243;SDS011;22284;49.956;19.816;2022-07-29T06:48:45;7.67;;;3.67;;
36243;SDS011;22284;49.956;19.816;2022-07-29T06:51:47;10.78;;;3.90;;
36243;SDS011;22284;49.956;19.816;2022-07-29T06:54:48;5.83;;;3.92;;
36243;SDS011;22284;49.956;19.816;2022-07-29T06:57:49;9.10;;;3.90;;
36243;SDS011;22284;49.956;19.816;2022-07-29T07:00:50;8.55;;;3.77;;
36243;SDS011;22284;49.956;19.816;2022-07-29T07:03:52;7.47;;;3.50;;
36243;SDS011;22284;49.956;19.816;2022-07-29T07:06:52;8.50;;;4.03;;
36243;SDS011;22284;49.956;19.816;2022-07-29T07:09:55;7.62;;;3.70;;
36243;SDS011;22284;49.956;19.816;2022-07-29T07:12:56;10.80;;;3.85;;
36243;SDS011;22284;49.956;19.816;2022-07-29T07:15:57;6.95;;;4.30;;
36243;SDS011;22284;49.956;19.816;2022-07-29T07:18:58;7.95;;;3.90;;
36243;SDS011;22284;49.956;19.816;2022-07-29T07:22:00;8.33;;;4.03;;
36243;SDS011;22284;49.956;19.816;2022-07-29T07:25:01;9.13;;;4.08;;
36243;SDS011;22284;49.956;19.816;2022-07-29T07:28:02;6.97;;;3.85;;
36243;SDS011;22284;49.956;19.816;2022-07-29T07:31:03;6.93;;;4.07;;
36243;SDS011;22284;49.956;19.816;2022-07-29T07:34:05;7.08;;;4.10;;
36243;SDS011;22284;49.956;19.816;2022-07-29T07:37:06;8.23;;;3.98;;
36243;SDS011;22284;49.956;19.816;2022-07-29T07:40:08;7.37;;;4.50;;
36243;SDS011;22284;49.956;19.816;2022-07-29T07:43:11;6.87;;;3.92;;
36243;SDS011;22284;49.956;19.816;2022-07-29T07:46:12;10.93;;;4.00;;
36243;SDS011;22284;49.956;19.816;2022-07-29T07:49:14;10.38;;;4.20;;
36243;SDS011;22284;49.956;19.816;2022-07-29T07:52:15;8.73;;;4.20;;
36243;SDS011;22284;49.956;19.816;2022-07-29T07:55:18;7.58;;;3.72;;
36243;SDS011;22284;49.956;19.816;2022-07-29T07:58:19;9.30;;;4.42;;
36243;SDS011;22284;49.956;19.816;2022-07-29T08:01:20;11.10;;;4.00;;
36243;SDS011;22284;49.956;19.816;2022-07-29T08:04:23;7.78;;;3.83;;
36243;SDS011;22284;49.956;19.816;2022-07-29T08:07:25;5.00;;;3.70;;
36243;SDS011;22284;49.956;19.816;2022-07-29T08:10:26;7.55;;;3.98;;
36243;SDS011;22284;49.956;19.816;2022-07-29T08:13:45;7.45;;;4.10;;
36243;SDS011;22284;49.956;19.816;2022-07-29T08:16:47;4.87;;;3.87;;
36243;SDS011;22284;49.956;19.816;2022-07-29T08:19:48;7.20;;;4.15;;
36243;SDS011;22284;49.956;19.816;2022-07-29T08:22:50;7.55;;;4.20;;
36243;SDS011;22284;49.956;19.816;2022-07-29T08:25:51;7.70;;;3.83;;
36243;SDS011;22284;49.956;19.816;2022-07-29T08:28:52;10.28;;;4.05;;
36243;SDS011;22284;49.956;19.816;2022-07-29T08:31:53;6.17;;;3.72;;
36243;SDS011;22284;49.956;19.816;2022-07-29T08:34:54;6.22;;;3.92;;
36243;SDS011;22284;49.956;19.816;2022-07-29T08:37:55;9.55;;;4.53;;
36243;SDS011;22284;49.956;19.816;2022-07-29T08:40:57;5.03;;;3.77;;
36243;SDS011;22284;49.956;19.816;2022-07-29T08:44:01;8.45;;;4.08;;
36243;SDS011;22284;49.956;19.816;2022-07-29T08:47:02;9.78;;;4.60;;
36243;SDS011;22284;49.956;19.816;2022-07-29T08:50:03;9.13;;;3.90;;
36243;SDS011;22284;49.956;19.816;2022-07-29T08:53:06;8.35;;;4.22;;
36243;SDS011;22284;49.956;19.816;2022-07-29T08:56:13;9.20;;;4.75;;
36243;SDS011;22284;49.956;19.816;2022-07-29T08:59:19;4.75;;;4.10;;
36243;SDS011;22284;49.956;19.816;2022-07-29T09:02:22;5.65;;;4.25;;
36243;SDS011;22284;49.956;19.816;2022-07-29T09:05:25;7.03;;;4.75;;
36243;SDS011;22284;49.956;19.816;2022-07-29T09:08:27;9.08;;;4.58;;
36243;SDS011;22284;49.956;19.816;2022-07-29T09:11:31;6.45;;;4.22;;
36243;SDS011;22284;49.956;19.816;2022-07-29T09:14:33;6.25;;;4.17;;
36243;SDS011;22284;49.956;19.816;2022-07-29T09:17:44;9.75;;;4.50;;
36243;SDS011;22284;49.956;19.816;2022-07-29T09:20:51;8.40;;;4.60;;
36243;SDS011;22284;49.956;19.816;2022-07-29T09:24:12;8.53;;;4.60;;
36243;SDS011;22284;49.956;19.816;2022-07-29T09:30:26;6.60;;;4.40;;
36243;SDS011;22284;49.956;19.816;2022-07-29T09:33:33;14.25;;;4.50;;
36243;SDS011;22284;49.956;19.816;2022-07-29T09:36:42;9.58;;;4.50;;
36243;SDS011;22284;49.956;19.816;2022-07-29T09:39:46;7.55;;;4.30;;
36243;SDS011;22284;49.956;19.816;2022-07-29T09:42:47;7.80;;;4.33;;
36243;SDS011;22284;49.956;19.816;2022-07-29T09:45:49;4.95;;;3.87;;
36243;SDS011;22284;49.956;19.816;2022-07-29T09:49:05;9.00;;;4.35;;
36243;SDS011;22284;49.956;19.816;2022-07-29T09:52:12;7.85;;;4.15;;
36243;SDS011;22284;49.956;19.816;2022-07-29T09:55:13;6.42;;;4.10;;
36243;SDS011;22284;49.956;19.816;2022-07-29T09:58:18;6.20;;;4.47;;
36243;SDS011;22284;49.956;19.816;2022-07-29T10:01:28;7.65;;;3.92;;
36243;SDS011;22284;49.956;19.816;2022-07-29T10:04:36;10.05;;;4.62;;
36243;SDS011;22284;49.956;19.816;2022-07-29T10:07:54;9.38;;;4.00;;
36243;SDS011;22284;49.956;19.816;2022-07-29T10:11:08;9.35;;;4.30;;
36243;SDS011;22284;49.956;19.816;2022-07-29T10:14:12;9.38;;;4.47;;
36243;SDS011;22284;49.956;19.816;2022-07-29T10:20:15;10.38;;;4.50;;
36243;SDS011;22284;49.956;19.816;2022-07-29T10:23:17;11.22;;;4.47;;
36243;SDS011;22284;49.956;19.816;2022-07-29T10:26:19;6.30;;;4.25;;
36243;SDS011;22284;49.956;19.816;2022-07-29T10:29:20;6.42;;;3.87;;
36243;SDS011;22284;49.956;19.816;2022-07-29T10:32:31;6.23;;;4.10;;
36243;SDS011;22284;49.956;19.816;2022-07-29T10:39:05;8.03;;;4.00;;
36243;SDS011;22284;49.956;19.816;2022-07-29T10:42:39;7.58;;;4.10;;
36243;SDS011;22284;49.956;19.816;2022-07-29T10:45:41;6.97;;;4.05;;
36243;SDS011;22284;49.956;19.816;2022-07-29T10:52:11;7.92;;;3.85;;
36243;SDS011;22284;49.956;19.816;2022-07-29T10:58:36;9.00;;;4.45;;
36243;SDS011;22284;49.956;19.816;2022-07-29T11:01:37;6.03;;;4.03;;
36243;SDS011;22284;49.956;19.816;2022-07-29T11:21:02;9.03;;;4.35;;
36243;SDS011;22284;49.956;19.816;2022-07-29T11:24:16;7.55;;;4.45;;
36243;SDS011;22284;49.956;19.816;2022-07-29T11:27:21;9.95;;;4.28;;
36243;SDS011;22284;49.956;19.816;2022-07-29T11:33:51;6.75;;;3.90;;
36243;SDS011;22284;49.956;19.816;2022-07-29T11:40:15;8.68;;;4.03;;
36243;SDS011;22284;49.956;19.816;2022-07-29T11:43:45;11.12;;;4.03;;
36243;SDS011;22284;49.956;19.816;2022-07-29T11:49:52;9.65;;;4.45;;
36243;SDS011;22284;49.956;19.816;2022-07-29T11:52:54;7.12;;;4.03;;
36243;SDS011;22284;49.956;19.816;2022-07-29T11:55:56;8.43;;;3.52;;
36243;SDS011;22284;49.956;19.816;2022-07-29T11:59:03;8.53;;;4.25;;
36243;SDS011;22284;49.956;19.816;2022-07-29T12:02:06;6.95;;;3.95;;
36243;SDS011;22284;49.956;19.816;2022-07-29T12:05:09;7.85;;;4.17;;
36243;SDS011;22284;49.956;19.816;2022-07-29T12:08:21;7.50;;;3.72;;
36243;SDS011;22284;49.956;19.816;2022-07-29T12:11:23;6.62;;;3.70;;
36243;SDS011;22284;49.956;19.816;2022-07-29T12:14:30;6.63;;;4.00;;
36243;SDS011;22284;49.956;19.816;2022-07-29T12:17:34;8.83;;;4.10;;
36243;SDS011;22284;49.956;19.816;2022-07-29T12:20:35;5.47;;;3.80;;
36243;SDS011;22284;49.956;19.816;2022-07-29T12:23:36;8.15;;;3.72;;
36243;SDS011;22284;49.956;19.816;2022-07-29T12:26:48;7.20;;;3.70;;
36243;SDS011;22284;49.956;19.816;2022-07-29T12:30:00;8.40;;;4.10;;
36243;SDS011;22284;49.956;19.816;2022-07-29T12:33:00;10.20;;;3.72;;
36243;SDS011;22284;49.956;19.816;2022-07-29T12:36:02;6.03;;;4.05;;
36243;SDS011;22284;49.956;19.816;2022-07-29T12:39:04;6.03;;;4.00;;
36243;SDS011;22284;49.956;19.816;2022-07-29T12:42:15;7.65;;;3.92;;
36243;SDS011;22284;49.956;19.816;2022-07-29T12:45:27;6.65;;;3.75;;
36243;SDS011;22284;49.956;19.816;2022-07-29T12:48:36;5.53;;;3.80;;
36243;SDS011;22284;49.956;19.816;2022-07-29T12:51:42;5.97;;;3.90;;
36243;SDS011;22284;49.956;19.816;2022-07-29T12:54:46;6.73;;;3.60;;
36243;SDS011;22284;49.956;19.816;2022-07-29T12:57:48;9.25;;;4.12;;
36243;SDS011;22284;49.956;19.816;2022-07-29T13:01:15;6.90;;;3.92;;
36243;SDS011;22284;49.956;19.816;2022-07-29T13:04:24;6.35;;;3.95;;
36243;SDS011;22284;49.956;19.816;2022-07-29T13:07:31;9.15;;;3.90;;
36243;SDS011;22284;49.956;19.816;2022-07-29T13:10:35;7.67;;;4.58;;
36243;SDS011;22284;49.956;19.816;2022-07-29T13:13:49;6.25;;;3.92;;
36243;SDS011;22284;49.956;19.816;2022-07-29T13:20:17;7.83;;;3.58;;
36243;SDS011;22284;49.956;19.816;2022-07-29T13:23:18;8.00;;;3.98;;
36243;SDS011;22284;49.956;19.816;2022-07-29T13:26:19;8.55;;;3.67;;
36243;SDS011;22284;49.956;19.816;2022-07-29T13:29:20;6.20;;;3.77;;
36243;SDS011;22284;49.956;19.816;2022-07-29T13:32:21;9.90;;;3.60;;
36243;SDS011;22284;49.956;19.816;2022-07-29T13:35:22;5.83;;;3.72;;
36243;SDS011;22284;49.956;19.816;2022-07-29T13:38:23;8.43;;;3.70;;
36243;SDS011;22284;49.956;19.816;2022-07-29T13:41:24;6.03;;;3.60;;
36243;SDS011;22284;49.956;19.816;2022-07-29T13:44:26;9.35;;;4.03;;
36243;SDS011;22284;49.956;19.816;2022-07-29T13:47:27;7.30;;;3.67;;
36243;SDS011;22284;49.956;19.816;2022-07-29T13:50:31;8.93;;;3.80;;
36243;SDS011;22284;49.956;19.816;2022-07-29T13:53:32;5.35;;;3.42;;
36243;SDS011;22284;49.956;19.816;2022-07-29T13:56:33;5.13;;;3.70;;
36243;SDS011;22284;49.956;19.816;2022-07-29T13:59:34;8.50;;;3.90;;
36243;SDS011;22284;49.956;19.816;2022-07-29T14:02:35;5.45;;;3.58;;
36243;SDS011;22284;49.956;19.816;2022-07-29T14:05:38;6.85;;;3.47;;
36243;SDS011;22284;49.956;19.816;2022-07-29T14:08:39;6.55;;;3.50;;
36243;SDS011;22284;49.956;19.816;2022-07-29T14:11:40;6.67;;;3.57;;
36243;SDS011;22284;49.956;19.816;2022-07-29T14:14:41;5.87;;;3.90;;
36243;SDS011;22284;49.956;19.816;2022-07-29T14:17:42;9.07;;;3.50;;
36243;SDS011;22284;49.956;19.816;2022-07-29T14:20:43;6.15;;;3.77;;
36243;SDS011;22284;49.956;19.816;2022-07-29T14:23:44;7.05;;;3.60;;
36243;SDS011;22284;49.956;19.816;2022-07-29T14:26:45;11.83;;;3.60;;
36243;SDS011;22284;49.956;19.816;2022-07-29T14:29:46;5.60;;;3.60;;
36243;SDS011;22284;49.956;19.816;2022-07-29T14:32:47;6.67;;;3.95;;
36243;SDS011;22284;49.956;19.816;2022-07-29T14:35:48;6.33;;;3.92;;
36243;SDS011;22284;49.956;19.816;2022-07-29T14:38:49;6.28;;;3.72;;
36243;SDS011;22284;49.956;19.816;2022-07-29T14:41:50;5.60;;;3.72;;
36243;SDS011;22284;49.956;19.816;2022-07-29T14:44:51;6.33;;;3.67;;
36243;SDS011;22284;49.956;19.816;2022-07-29T14:47:52;7.53;;;4.60;;
36243;SDS011;22284;49.956;19.816;2022-07-29T14:50:53;10.87;;;3.80;;
36243;SDS011;22284;49.956;19.816;2022-07-29T14:53:56;10.08;;;4.00;;
36243;SDS011;22284;49.956;19.816;2022-07-29T14:56:57;5.67;;;4.00;;
36243;SDS011;22284;49.956;19.816;2022-07-29T14:59:58;12.03;;;4.58;;
36243;SDS011;22284;49.956;19.816;2022-07-29T15:02:59;9.68;;;4.78;;
36243;SDS011;22284;49.956;19.816;2022-07-29T15:06:01;8.53;;;4.47;;
36243;SDS011;22284;49.956;19.816;2022-07-29T15:09:02;6.40;;;3.87;;
36243;SDS011;22284;49.956;19.816;2022-07-29T15:12:03;7.97;;;4.30;;
36243;SDS011;22284;49.956;19.816;2022-07-29T15:18:07;6.20;;;3.35;;
36243;SDS011;22284;49.956;19.816;2022-07-29T15:21:09;7.45;;;3.55;;
36243;SDS011;22284;49.956;19.816;2022-07-29T15:24:10;6.15;;;3.67;;
36243;SDS011;22284;49.956;19.816;2022-07-29T15:27:11;7.75;;;3.45;;
36243;SDS011;22284;49.956;19.816;2022-07-29T15:30:14;9.05;;;3.80;;
36243;SDS011;22284;49.956;19.816;2022-07-29T15:33:17;6.85;;;3.85;;
36243;SDS011;22284;49.956;19.816;2022-07-29T15:36:18;8.03;;;4.10;;
36243;SDS011;22284;49.956;19.816;2022-07-29T15:39:19;7.08;;;3.75;;
36243;SDS011;22284;49.956;19.816;2022-07-29T15:45:22;8.60;;;3.90;;
36243;SDS011;22284;49.956;19.816;2022-07-29T15:48:23;8.77;;;4.23;;
36243;SDS011;22284;49.956;19.816;2022-07-29T15:51:24;6.00;;;3.83;;
36243;SDS011;22284;49.956;19.816;2022-07-29T15:54:26;7.37;;;4.12;;
36243;SDS011;22284;49.956;19.816;2022-07-29T15:57:28;5.40;;;4.00;;
36243;SDS011;22284;49.956;19.816;2022-07-29T16:00:28;8.55;;;4.53;;
36243;SDS011;22284;49.956;19.816;2022-07-29T16:03:29;7.58;;;4.85;;
36243;SDS011;22284;49.956;19.816;2022-07-29T16:06:30;10.53;;;5.40;;
36243;SDS011;22284;49.956;19.816;2022-07-29T16:09:31;10.55;;;6.00;;
36243;SDS011;22284;49.956;19.816;2022-07-29T16:12:32;10.40;;;6.42;;
36243;SDS011;22284;49.956;19.816;2022-07-29T16:15:33;15.98;;;7.12;;
36243;SDS011;22284;49.956;19.816;2022-07-29T16:18:34;18.48;;;9.00;;
36243;SDS011;22284;49.956;19.816;2022-07-29T16:21:36;13.22;;;7.35;;
36243;SDS011;22284;49.956;19.816;2022-07-29T16:24:37;16.32;;;7.58;;
36243;SDS011;22284;49.956;19.816;2022-07-29T16:27:38;11.20;;;6.63;;
36243;SDS011;22284;49.956;19.816;2022-07-29T16:30:39;10.48;;;7.03;;
36243;SDS011;22284;49.956;19.816;2022-07-29T16:33:40;12.18;;;7.10;;
36243;SDS011;22284;49.956;19.816;2022-07-29T16:36:41;11.25;;;6.28;;
36243;SDS011;22284;49.956;19.816;2022-07-29T16:39:43;10.95;;;6.17;;
36243;SDS011;22284;49.956;19.816;2022-07-29T16:42:44;14.75;;;6.28;;
36243;SDS011;22284;49.956;19.816;2022-07-29T16:45:45;9.78;;;5.75;;
36243;SDS011;22284;49.956;19.816;2022-07-29T16:48:46;9.70;;;5.72;;
36243;SDS011;22284;49.956;19.816;2022-07-29T16:51:47;9.88;;;6.05;;
36243;SDS011;22284;49.956;19.816;2022-07-29T16:54:48;14.85;;;6.70;;
36243;SDS011;22284;49.956;19.816;2022-07-29T16:57:50;12.70;;;6.22;;
36243;SDS011;22284;49.956;19.816;2022-07-29T17:00:52;12.85;;;7.40;;
36243;SDS011;22284;49.956;19.816;2022-07-29T17:03:52;11.20;;;6.28;;
36243;SDS011;22284;49.956;19.816;2022-07-29T17:07:05;10.13;;;5.92;;
36243;SDS011;22284;49.956;19.816;2022-07-29T17:10:07;9.15;;;6.35;;
36243;SDS011;22284;49.956;19.816;2022-07-29T17:13:10;9.58;;;6.03;;
36243;SDS011;22284;49.956;19.816;2022-07-29T17:16:11;10.63;;;6.20;;
36243;SDS011;22284;49.956;19.816;2022-07-29T17:19:12;9.33;;;5.67;;
36243;SDS011;22284;49.956;19.816;2022-07-29T17:22:13;11.25;;;5.90;;
36243;SDS011;22284;49.956;19.816;2022-07-29T17:25:14;9.13;;;5.78;;
36243;SDS011;22284;49.956;19.816;2022-07-29T17:28:15;9.15;;;5.58;;
36243;SDS011;22284;49.956;19.816;2022-07-29T17:31:15;7.65;;;5.12;;
36243;SDS011;22284;49.956;19.816;2022-07-29T17:34:17;6.60;;;5.00;;
36243;SDS011;22284;49.956;19.816;2022-07-29T17:37:17;7.20;;;4.60;;
36243;SDS011;22284;49.956;19.816;2022-07-29T17:40:19;7.08;;;4.47;;
36243;SDS011;22284;49.956;19.816;2022-07-29T17:43:20;9.10;;;4.70;;
36243;SDS011;22284;49.956;19.816;2022-07-29T17:46:21;6.05;;;4.83;;
36243;SDS011;22284;49.956;19.816;2022-07-29T17:49:26;5.87;;;4.72;;
36243;SDS011;22284;49.956;19.816;2022-07-29T17:52:27;8.53;;;5.03;;
36243;SDS011;22284;49.956;19.816;2022-07-29T17:55:28;9.20;;;5.20;;
36243;SDS011;22284;49.956;19.816;2022-07-29T17:58:29;8.00;;;5.12;;
36243;SDS011;22284;49.956;19.816;2022-07-29T18:01:32;6.67;;;4.90;;
36243;SDS011;22284;49.956;19.816;2022-07-29T18:04:33;8.08;;;5.28;;
36243;SDS011;22284;49.956;19.816;2022-07-29T18:07:34;8.68;;;5.25;;
36243;SDS011;22284;49.956;19.816;2022-07-29T18:10:35;10.28;;;5.60;;
36243;SDS011;22284;49.956;19.816;2022-07-29T18:13:37;8.30;;;5.40;;
36243;SDS011;22284;49.956;19.816;2022-07-29T18:16:38;6.47;;;4.87;;
36243;SDS011;22284;49.956;19.816;2022-07-29T18:19:39;7.50;;;4.80;;
36243;SDS011;22284;49.956;19.816;2022-07-29T18:22:40;8.63;;;5.40;;
36243;SDS011;22284;49.956;19.816;2022-07-29T18:25:41;7.50;;;5.03;;
36243;SDS011;22284;49.956;19.816;2022-07-29T18:28:42;7.15;;;4.97;;
36243;SDS011;22284;49.956;19.816;2022-07-29T18:31:43;6.90;;;4.42;;
36243;SDS011;22284;49.956;19.816;2022-07-29T18:34:44;6.05;;;4.03;;
36243;SDS011;22284;49.956;19.816;2022-07-29T18:37:45;4.97;;;3.65;;
36243;SDS011;22284;49.956;19.816;2022-07-29T18:40:46;5.12;;;3.90;;
36243;SDS011;22284;49.956;19.816;2022-07-29T18:43:47;3.87;;;3.40;;
36243;SDS011;22284;49.956;19.816;2022-07-29T18:46:49;5.83;;;3.80;;
36243;SDS011;22284;49.956;19.816;2022-07-29T18:49:51;5.62;;;4.30;;
36243;SDS011;22284;49.956;19.816;2022-07-29T18:52:52;6.08;;;4.05;;
36243;SDS011;22284;49.956;19.816;2022-07-29T18:55:54;7.90;;;3.85;;
36243;SDS011;22284;49.956;19.816;2022-07-29T18:58:57;5.42;;;3.65;;
36243;SDS011;22284;49.956;19.816;2022-07-29T19:01:58;6.00;;;3.98;;